Time;durP1;ratioP1;P1;durP2;ratioP2;P2;SDS_P1;SDS_P2;PMS_P1;PMS_P2;Temp;Humidity;BMP_temperature;BMP_pressure;BME280_temperature;BME280_humidity;BME280_pressure;Samples;Min_cycle;Max_cycle;Signal;HPM_P1;HPM_P2
2022/11/29 00:01:10;;;;;;;219.43;57.72;;;7.10;99.90;;;;;;5113664;28;20046;-64
2022/11/29 00:03:36;;;;;;;188.85;57.70;;;7.10;99.90;;;;;;5097606;28;20396;-64
2022/11/29 00:06:12;;;;;;;29.98;18.13;;;7.00;99.90;;;;;;5096645;28;20507;-64
2022/11/29 00:08:38;;;;;;;136.40;37.22;;;7.00;99.90;;;;;;5114388;28;20044;-64
2022/11/29 00:11:09;;;;;;;77.35;28.38;;;7.00;99.90;;;;;;5113784;28;20053;-65
2022/11/29 00:13:35;;;;;;;87.75;30.90;;;7.00;99.90;;;;;;5096694;28;20152;-64
2022/11/29 00:16:03;;;;;;;91.97;30.73;;;7.00;99.90;;;;;;5114217;28;20543;-64
2022/11/29 00:18:29;;;;;;;86.55;32.55;;;7.00;99.90;;;;;;5115351;28;20031;-64
2022/11/29 00:20:54;;;;;;;125.28;42.33;;;7.00;99.90;;;;;;5113482;28;20039;-64
2022/11/29 00:23:20;;;;;;;53.40;21.75;;;7.00;99.90;;;;;;5096584;28;20039;-64
2022/11/29 00:25:46;;;;;;;89.97;26.80;;;6.90;99.90;;;;;;5113779;28;20450;-64
2022/11/29 00:28:11;;;;;;;53.65;22.17;;;6.90;99.90;;;;;;5114159;28;20392;-64
2022/11/29 00:30:37;;;;;;;60.13;22.88;;;6.90;99.90;;;;;;5113787;28;20071;-64
2022/11/29 00:33:03;;;;;;;83.28;26.35;;;6.90;99.90;;;;;;5096091;28;20071;-64
2022/11/29 00:35:29;;;;;;;100.43;33.78;;;6.90;99.90;;;;;;5115027;28;20475;-64
2022/11/29 00:37:55;;;;;;;40.38;19.27;;;6.90;99.90;;;;;;5114144;28;20075;-64
2022/11/29 00:40:20;;;;;;;60.78;22.55;;;6.90;99.90;;;;;;5113546;28;20108;-64
2022/11/29 00:42:46;;;;;;;42.88;19.20;;;6.80;99.90;;;;;;5096711;28;20051;-64
2022/11/29 00:45:11;;;;;;;55.95;21.15;;;6.80;99.90;;;;;;5113314;28;20032;-64
2022/11/29 00:47:37;;;;;;;34.10;16.60;;;6.80;99.90;;;;;;5112848;28;20032;-65
2022/11/29 00:50:04;;;;;;;44.95;20.42;;;6.80;99.90;;;;;;5114879;28;20123;-65
2022/11/29 00:52:29;;;;;;;62.17;23.98;;;6.80;99.90;;;;;;5096871;28;20450;-65
2022/11/29 00:54:55;;;;;;;85.13;26.38;;;6.80;99.90;;;;;;5095818;28;20052;-65
2022/11/29 00:57:20;;;;;;;17.08;11.88;;;6.80;99.90;;;;;;5112937;28;20499;-65
2022/11/29 00:59:46;;;;;;;64.28;21.95;;;6.70;99.90;;;;;;5114429;28;20126;-65
2022/11/29 01:02:12;;;;;;;33.55;16.88;;;6.80;99.90;;;;;;5111963;28;20082;-65
2022/11/29 01:04:37;;;;;;;84.50;27.27;;;6.70;99.90;;;;;;5114437;28;20079;-65
2022/11/29 01:07:03;;;;;;;71.65;26.05;;;6.80;99.90;;;;;;5096267;28;20082;-64
2022/11/29 01:09:28;;;;;;;105.13;35.20;;;6.80;99.90;;;;;;5112493;28;20042;-64
2022/11/29 01:11:54;;;;;;;28.63;16.05;;;6.70;99.90;;;;;;5114328;28;20036;-65
2022/11/29 01:14:20;;;;;;;25.52;14.90;;;6.70;99.90;;;;;;5113831;28;20039;-65
2022/11/29 01:16:45;;;;;;;33.33;16.48;;;6.70;99.90;;;;;;5113608;28;20031;-65
2022/11/29 01:19:11;;;;;;;39.85;19.65;;;6.70;99.90;;;;;;5113805;28;20092;-64
2022/11/29 01:21:37;;;;;;;50.10;18.73;;;6.70;99.90;;;;;;5096238;28;20489;-65
2022/11/29 01:24:02;;;;;;;60.40;22.70;;;6.70;99.90;;;;;;5111929;28;20539;-64
2022/11/29 01:26:30;;;;;;;42.28;19.38;;;6.60;99.90;;;;;;5112483;28;20052;-65
2022/11/29 01:28:57;;;;;;;39.33;18.50;;;6.60;99.90;;;;;;5095771;28;20074;-64
2022/11/29 01:31:34;;;;;;;45.83;20.38;;;6.60;99.90;;;;;;5112638;28;20071;-65
2022/11/29 01:34:02;;;;;;;17.92;11.38;;;6.60;99.90;;;;;;5112903;28;20489;-64
2022/11/29 01:36:28;;;;;;;34.42;17.88;;;6.60;99.90;;;;;;5111093;28;20059;-64
2022/11/29 01:38:54;;;;;;;48.33;19.67;;;6.70;99.90;;;;;;5112489;28;20043;-65
2022/11/29 01:41:25;;;;;;;25.38;14.75;;;6.70;99.90;;;;;;5095299;28;20373;-65
2022/11/29 01:44:11;;;;;;;93.20;33.00;;;6.70;99.90;;;;;;5111782;28;20039;-64
2022/11/29 01:46:40;;;;;;;35.95;15.00;;;6.70;99.90;;;;;;5112407;28;20131;-64
2022/11/29 01:49:19;;;;;;;40.40;20.98;;;6.70;99.90;;;;;;5111698;28;20044;-64
2022/11/29 01:51:50;;;;;;;42.53;20.10;;;6.60;99.90;;;;;;5112999;28;20027;-64
2022/11/29 01:54:16;;;;;;;26.35;14.80;;;6.60;99.90;;;;;;5094845;28;20544;-64
2022/11/29 01:56:44;;;;;;;15.63;10.10;;;6.60;99.90;;;;;;5113731;28;20055;-65
2022/11/29 01:59:13;;;;;;;15.52;10.10;;;6.60;99.90;;;;;;5111934;28;20047;-65
2022/11/29 02:01:39;;;;;;;20.15;11.48;;;6.60;99.90;;;;;;5112227;28;20035;-65
2022/11/29 02:04:05;;;;;;;25.63;14.65;;;6.60;99.90;;;;;;5111671;28;20035;-65
2022/11/29 02:06:32;;;;;;;36.80;18.52;;;6.60;99.90;;;;;;5112592;28;20051;-65
2022/11/29 02:08:57;;;;;;;20.77;13.07;;;6.60;99.90;;;;;;5113624;28;20036;-65
2022/11/29 02:11:29;;;;;;;18.92;12.43;;;6.50;99.90;;;;;;5112780;28;20598;-65
2022/11/29 02:14:00;;;;;;;16.15;11.45;;;6.50;99.90;;;;;;5112904;28;20559;-65
2022/11/29 02:16:37;;;;;;;26.42;15.45;;;6.50;99.90;;;;;;5111258;28;20492;-64
2022/11/29 02:19:40;;;;;;;19.83;13.88;;;6.40;99.90;;;;;;5111078;28;20500;-65
2022/11/29 02:22:11;;;;;;;15.38;9.88;;;6.40;99.90;;;;;;5111732;28;20054;-65
2022/11/29 02:24:55;;;;;;;12.85;9.05;;;6.40;99.90;;;;;;5111079;28;20044;-65
2022/11/29 02:27:30;;;;;;;21.52;13.02;;;6.30;99.90;;;;;;5110167;28;20059;-65
2022/11/29 02:30:01;;;;;;;26.45;14.77;;;6.40;99.90;;;;;;5111805;28;20043;-64
2022/11/29 02:33:05;;;;;;;19.63;12.88;;;6.30;99.90;;;;;;5111279;28;20488;-64
2022/11/29 02:35:47;;;;;;;14.25;9.65;;;6.30;99.90;;;;;;5111586;28;20496;-65
2022/11/29 02:38:31;;;;;;;24.52;13.90;;;6.20;99.90;;;;;;5112357;28;20047;-65
2022/11/29 02:41:45;;;;;;;13.10;8.98;;;6.20;99.90;;;;;;5110726;28;20514;-64
2022/11/29 02:44:41;;;;;;;18.08;10.35;;;6.20;99.90;;;;;;5112186;28;20047;-64
2022/11/29 02:47:13;;;;;;;;;;;6.20;99.90;;;;;;5093747;28;20051;-64
2022/11/29 02:50:00;;;;;;;17.58;10.77;;;6.10;99.90;;;;;;5112556;28;19959;-64
2022/11/29 02:52:49;;;;;;;21.60;11.82;;;6.10;99.90;;;;;;5111247;28;20052;-64
2022/11/29 02:55:37;;;;;;;34.28;14.93;;;6.10;99.90;;;;;;5110227;28;20040;-65
2022/11/29 02:58:27;;;;;;;12.85;9.40;;;6.10;99.90;;;;;;5111404;28;20072;-65
2022/11/29 03:01:18;;;;;;;17.95;10.55;;;6.10;99.90;;;;;;5112050;28;20051;-64
2022/11/29 03:04:24;;;;;;;16.92;10.68;;;6.10;99.90;;;;;;5112677;28;20456;-64
2022/11/29 03:06:55;;;;;;;13.18;8.02;;;6.00;99.90;;;;;;5112717;28;20488;-64
2022/11/29 03:09:44;;;;;;;15.88;10.02;;;6.00;99.90;;;;;;5110403;28;20040;-64
2022/11/29 03:12:15;;;;;;;13.27;8.27;;;6.00;99.90;;;;;;5110848;28;20082;-64
2022/11/29 03:15:38;;;;;;;18.75;10.65;;;6.00;99.90;;;;;;5111360;28;20054;-64
2022/11/29 03:18:41;;;;;;;27.10;13.70;;;6.00;99.90;;;;;;5012847;28;20037;-64
2022/11/29 03:21:10;;;;;;;14.55;8.77;;;6.00;99.90;;;;;;5028787;28;20482;-64
2022/11/29 03:23:48;;;;;;;11.77;7.72;;;6.00;99.90;;;;;;5090575;28;20123;-64
2022/11/29 03:26:19;;;;;;;14.32;9.07;;;5.90;99.90;;;;;;5093278;28;20090;-64
2022/11/29 03:29:08;;;;;;;16.65;10.57;;;5.90;99.90;;;;;;5111105;28;20050;-64
2022/11/29 03:32:09;;;;;;;14.88;8.25;;;6.00;99.90;;;;;;5097740;28;20126;-64
2022/11/29 03:34:43;;;;;;;14.00;9.23;;;6.00;99.90;;;;;;5090078;28;20043;-64
2022/11/29 03:37:20;;;;;;;15.25;9.00;;;5.90;99.90;;;;;;5113101;28;20173;-64
2022/11/29 03:40:11;;;;;;;13.25;7.55;;;5.90;99.90;;;;;;5114903;28;20039;-64
2022/11/29 03:42:42;;;;;;;17.30;9.65;;;5.90;99.90;;;;;;5105841;28;20517;-64
2022/11/29 03:45:27;;;;;;;31.25;16.67;;;5.90;99.90;;;;;;5113432;28;20047;-64
2022/11/29 03:48:16;;;;;;;11.15;8.15;;;5.90;99.90;;;;;;5114830;28;20051;-64
2022/11/29 03:50:48;;;;;;;14.52;9.80;;;5.80;99.90;;;;;;5114183;28;20392;-64
2022/11/29 03:53:19;;;;;;;12.50;8.05;;;5.80;99.90;;;;;;5115712;28;20043;-64
2022/11/29 03:55:56;;;;;;;15.50;8.50;;;5.80;99.90;;;;;;5114613;28;20080;-65
2022/11/29 03:58:59;;;;;;;18.65;10.85;;;5.80;99.90;;;;;;5096474;28;20074;-64
2022/11/29 04:02:02;;;;;;;18.52;9.65;;;5.80;99.90;;;;;;5113959;28;20090;-64
2022/11/29 04:04:55;;;;;;;17.60;9.63;;;5.80;99.90;;;;;;5114077;28;20048;-64
2022/11/29 04:07:32;;;;;;;28.27;13.77;;;5.80;99.90;;;;;;5114181;28;20441;-64
2022/11/29 04:10:31;;;;;;;22.73;12.85;;;5.80;99.90;;;;;;5114244;28;20040;-64
2022/11/29 04:13:50;;;;;;;18.45;10.68;;;5.80;99.90;;;;;;5114929;28;20084;-64
2022/11/29 04:16:37;;;;;;;14.77;9.02;;;5.80;99.90;;;;;;5112926;28;20039;-64
2022/11/29 04:19:32;;;;;;;12.93;8.50;;;5.80;99.90;;;;;;5113333;28;20062;-64
2022/11/29 04:22:12;;;;;;;21.95;11.73;;;5.70;99.90;;;;;;5114495;28;20047;-64
2022/11/29 04:25:13;;;;;;;12.15;8.18;;;5.70;99.90;;;;;;5113837;28;20126;-64
2022/11/29 04:28:00;;;;;;;17.98;10.15;;;5.70;99.90;;;;;;5035828;28;20053;-64
2022/11/29 04:30:29;;;;;;;13.52;9.35;;;5.70;99.90;;;;;;5107923;28;20055;-64
2022/11/29 04:32:57;;;;;;;16.58;10.77;;;5.70;99.90;;;;;;5113053;28;20032;-64
2022/11/29 04:35:41;;;;;;;15.27;9.73;;;5.60;99.90;;;;;;5114646;28;20035;-64
2022/11/29 04:38:44;;;;;;;14.30;8.68;;;5.60;99.90;;;;;;5113474;28;20094;-65
2022/11/29 04:41:16;;;;;;;12.77;8.18;;;5.60;99.90;;;;;;5112630;28;20054;-64
2022/11/29 04:44:00;;;;;;;20.83;11.38;;;5.50;99.90;;;;;;5113791;28;20039;-64
2022/11/29 04:46:40;;;;;;;11.30;8.13;;;5.60;99.90;;;;;;5113260;28;20437;-65
2022/11/29 04:49:29;;;;;;;12.45;6.72;;;5.50;99.90;;;;;;5114435;28;20039;-64
2022/11/29 04:52:13;;;;;;;13.95;7.75;;;5.50;99.90;;;;;;5075817;28;20074;-65
2022/11/29 04:54:54;;;;;;;13.07;9.23;;;5.50;99.90;;;;;;5113990;28;20063;-65
2022/11/29 04:57:26;;;;;;;15.77;8.48;;;5.50;99.90;;;;;;5114170;28;20123;-64
2022/11/29 05:00:20;;;;;;;19.33;10.50;;;5.50;99.90;;;;;;5113488;28;20047;-65
2022/11/29 05:03:00;;;;;;;12.88;7.85;;;5.50;99.90;;;;;;5113390;28;20449;-64
2022/11/29 05:05:36;;;;;;;11.18;7.38;;;5.50;99.90;;;;;;5112693;28;20139;-64
2022/11/29 05:08:39;;;;;;;14.23;8.25;;;5.40;99.90;;;;;;5112657;28;20394;-64
2022/11/29 05:11:20;;;;;;;21.92;12.23;;;5.40;99.90;;;;;;5112890;28;20035;-65
2022/11/29 05:13:57;;;;;;;16.33;10.57;;;5.40;99.90;;;;;;5113172;28;20039;-64
2022/11/29 05:16:53;;;;;;;15.35;8.05;;;5.40;99.90;;;;;;5111975;28;20046;-64
2022/11/29 05:19:37;;;;;;;31.77;15.10;;;5.50;99.90;;;;;;5095459;28;20042;-64
2022/11/29 05:22:25;;;;;;;14.35;7.93;;;5.50;99.90;;;;;;5113503;28;20039;-65
2022/11/29 05:24:53;;;;;;;23.48;11.90;;;5.50;99.90;;;;;;5112709;28;20059;-64
2022/11/29 05:28:01;;;;;;;13.38;7.82;;;5.50;99.90;;;;;;5095332;28;20127;-65
2022/11/29 05:30:46;;;;;;;14.75;8.27;;;5.50;99.90;;;;;;5100632;28;20057;-65
2022/11/29 05:34:00;;;;;;;16.83;8.35;;;5.50;99.90;;;;;;5112247;28;20508;-66
2022/11/29 05:36:47;;;;;;;13.02;8.63;;;5.50;99.90;;;;;;5094427;28;20043;-65
2022/11/29 05:39:30;;;;;;;16.85;10.00;;;5.50;99.90;;;;;;5112440;28;20050;-64
2022/11/29 05:42:37;;;;;;;17.08;8.75;;;5.50;99.90;;;;;;5112571;28;20126;-65
2022/11/29 05:45:27;;;;;;;15.82;9.80;;;5.50;99.90;;;;;;5095238;28;20510;-64
2022/11/29 05:48:34;;;;;;;18.70;10.65;;;5.50;99.90;;;;;;5112429;28;20036;-64
2022/11/29 05:51:29;;;;;;;24.73;10.95;;;5.50;99.90;;;;;;5080960;28;20043;-65
2022/11/29 05:54:18;;;;;;;16.05;9.65;;;5.40;99.90;;;;;;5112346;28;20044;-64
2022/11/29 05:57:21;;;;;;;15.60;8.35;;;5.40;99.90;;;;;;5111389;28;20039;-64
2022/11/29 05:59:48;;;;;;;18.35;10.15;;;5.40;99.90;;;;;;5111743;28;20373;-64
2022/11/29 06:02:26;;;;;;;22.23;11.65;;;5.40;99.90;;;;;;5111852;28;20504;-64
2022/11/29 06:05:19;;;;;;;17.88;9.88;;;5.40;99.90;;;;;;5111111;28;20069;-64
2022/11/29 06:07:52;;;;;;;18.38;9.77;;;5.50;99.90;;;;;;5113529;28;20036;-64
2022/11/29 06:10:21;;;;;;;29.55;14.25;;;5.50;99.90;;;;;;5094494;28;20050;-64
2022/11/29 06:13:07;;;;;;;22.45;12.15;;;5.50;99.90;;;;;;5112567;28;20039;-64
2022/11/29 06:16:03;;;;;;;20.33;13.10;;;5.50;99.90;;;;;;5094795;28;20445;-64
2022/11/29 06:19:06;;;;;;;17.95;11.65;;;5.50;99.90;;;;;;5111429;28;20047;-64
2022/11/29 06:21:52;;;;;;;16.52;9.73;;;5.50;99.90;;;;;;5113211;28;20062;-64
2022/11/29 06:24:29;;;;;;;23.67;13.07;;;5.60;99.90;;;;;;5112473;28;20090;-64
2022/11/29 06:27:10;;;;;;;22.67;12.15;;;5.60;99.90;;;;;;5110987;28;20113;-64
2022/11/29 06:30:00;;;;;;;22.90;13.20;;;5.70;99.90;;;;;;5113135;28;20109;-64
2022/11/29 06:32:39;;;;;;;24.38;12.80;;;5.70;99.90;;;;;;5110428;28;20046;-64
2022/11/29 06:35:42;;;;;;;27.98;14.60;;;5.80;99.90;;;;;;5112539;28;20136;-64
2022/11/29 06:38:24;;;;;;;27.65;13.00;;;5.80;99.90;;;;;;5099248;28;20067;-64
2022/11/29 06:40:50;;;;;;;19.70;11.90;;;5.80;99.90;;;;;;5110882;28;20043;-64
2022/11/29 06:43:17;;;;;;;21.20;12.23;;;5.90;99.90;;;;;;5110867;28;20035;-64
2022/11/29 06:46:04;;;;;;;29.85;12.88;;;5.90;99.90;;;;;;5112916;28;20035;-64
2022/11/29 06:48:38;;;;;;;23.65;11.43;;;5.90;99.90;;;;;;5111741;28;20043;-64
2022/11/29 06:51:11;;;;;;;18.48;9.95;;;5.90;99.90;;;;;;5111315;28;20188;-64
2022/11/29 06:53:48;;;;;;;24.70;12.05;;;5.90;99.90;;;;;;5111327;28;20375;-64
2022/11/29 06:56:31;;;;;;;26.30;13.18;;;5.90;99.90;;;;;;5112253;28;20515;-64
2022/11/29 06:59:05;;;;;;;18.20;10.50;;;5.90;99.90;;;;;;5112708;28;20047;-64
2022/11/29 07:01:34;;;;;;;26.15;11.13;;;5.90;99.90;;;;;;5110735;28;20050;-64
2022/11/29 07:04:28;;;;;;;16.95;10.00;;;5.90;99.90;;;;;;5112418;28;20502;-64
2022/11/29 07:06:54;;;;;;;19.10;10.20;;;5.80;99.90;;;;;;5110355;28;20522;-64
2022/11/29 07:09:24;;;;;;;24.10;11.70;;;5.80;99.90;;;;;;5111204;28;20035;-64
2022/11/29 07:11:50;;;;;;;16.52;10.25;;;5.80;99.90;;;;;;5098591;28;20036;-64
2022/11/29 07:14:16;;;;;;;23.58;10.75;;;5.70;99.90;;;;;;5115421;28;20043;-64
2022/11/29 07:17:19;;;;;;;24.05;13.85;;;5.70;99.90;;;;;;5116677;28;20045;-64
2022/11/29 07:20:04;;;;;;;19.75;11.10;;;5.70;99.90;;;;;;5115406;28;20040;-64
2022/11/29 07:22:32;;;;;;;26.08;13.35;;;5.60;99.90;;;;;;5114336;28;20044;-64
2022/11/29 07:25:25;;;;;;;22.27;12.52;;;5.60;99.90;;;;;;5116434;28;20036;-65
2022/11/29 07:28:03;;;;;;;22.63;13.68;;;5.60;99.90;;;;;;5115225;28;20172;-64
2022/11/29 07:30:38;;;;;;;15.93;10.95;;;5.70;99.90;;;;;;5115156;28;20044;-64
2022/11/29 07:33:28;;;;;;;21.67;12.35;;;5.70;99.90;;;;;;5114902;28;20428;-64
2022/11/29 07:36:10;;;;;;;20.73;12.05;;;5.70;99.90;;;;;;5097649;28;20138;-64
2022/11/29 07:38:42;;;;;;;26.60;13.77;;;5.70;99.90;;;;;;5115034;28;20070;-64
2022/11/29 07:41:21;;;;;;;29.15;13.77;;;5.70;99.90;;;;;;5114646;28;20434;-64
2022/11/29 07:44:06;;;;;;;24.17;12.15;;;5.70;99.90;;;;;;5114556;28;20136;-64
2022/11/29 07:46:32;;;;;;;20.13;10.80;;;5.70;99.90;;;;;;5114749;28;20047;-64
2022/11/29 07:48:57;;;;;;;20.23;11.93;;;5.80;99.90;;;;;;5114921;28;20034;-64
2022/11/29 07:51:24;;;;;;;20.80;10.05;;;5.80;99.90;;;;;;5114730;28;20568;-64
2022/11/29 07:53:50;;;;;;;23.38;12.57;;;5.90;99.90;;;;;;5114866;28;20043;-64
2022/11/29 07:56:15;;;;;;;28.98;12.68;;;5.90;99.90;;;;;;5111988;28;20039;-64
2022/11/29 07:58:41;;;;;;;20.25;12.98;;;5.90;99.90;;;;;;5114783;28;20035;-64
2022/11/29 08:01:07;;;;;;;24.58;11.75;;;6.00;99.90;;;;;;5114183;28;20035;-65
2022/11/29 08:03:34;;;;;;;21.83;10.48;;;6.00;99.90;;;;;;5122165;27;20032;-64
2022/11/29 08:06:00;;;;;;;25.33;12.30;;;6.10;99.90;;;;;;5097473;28;20075;-64
2022/11/29 08:08:26;;;;;;;20.73;11.45;;;6.10;99.90;;;;;;5114628;28;20075;-64
2022/11/29 08:10:52;;;;;;;27.02;13.07;;;6.20;99.90;;;;;;5124249;27;20089;-64
2022/11/29 08:13:20;;;;;;;27.65;10.20;;;6.20;99.90;;;;;;5134317;27;20035;-64
2022/11/29 08:15:47;;;;;;;21.23;9.80;;;6.30;99.90;;;;;;5136068;27;20043;-64
2022/11/29 08:18:14;;;;;;;23.45;10.85;;;6.40;99.90;;;;;;5135069;27;20043;-64
2022/11/29 08:20:40;;;;;;;30.15;12.75;;;6.50;99.90;;;;;;5133471;27;20043;-64
2022/11/29 08:23:07;;;;;;;20.90;9.40;;;6.50;99.90;;;;;;5114309;28;20119;-64
2022/11/29 08:25:33;;;;;;;23.30;10.45;;;6.60;99.90;;;;;;5114285;28;20039;-64
2022/11/29 08:28:01;;;;;;;33.55;10.70;;;6.60;99.90;;;;;;5114201;28;20043;-64
2022/11/29 08:30:26;;;;;;;23.05;10.07;;;6.80;99.90;;;;;;5115861;27;20032;-64
2022/11/29 08:32:52;;;;;;;23.42;9.18;;;6.80;99.90;;;;;;5112950;28;20429;-64
2022/11/29 08:35:20;;;;;;;22.60;8.98;;;6.90;99.90;;;;;;5101980;28;20484;-65
2022/11/29 08:37:46;;;;;;;21.95;7.70;;;7.00;99.90;;;;;;5113856;28;20468;-64
2022/11/29 08:40:13;;;;;;;26.42;8.63;;;7.00;99.90;;;;;;5110669;28;20091;-64
2022/11/29 08:42:38;;;;;;;25.83;7.28;;;7.10;99.90;;;;;;5096354;28;20464;-64
2022/11/29 08:45:05;;;;;;;22.25;9.15;;;7.10;99.90;;;;;;5113240;28;20039;-64
2022/11/29 08:47:37;;;;;;;17.55;8.27;;;7.20;99.90;;;;;;5111651;27;20036;-63
2022/11/29 08:50:09;;;;;;;18.38;7.88;;;7.20;99.90;;;;;;5105347;28;20078;-64
2022/11/29 08:55:25;;;;;;;21.40;7.68;;;7.30;99.90;;;;;;5112045;28;20043;-63
2022/11/29 08:57:52;;;;;;;24.30;7.80;;;7.40;99.90;;;;;;5114684;28;20035;-64
2022/11/29 09:00:20;;;;;;;15.75;6.93;;;7.50;99.90;;;;;;5112786;28;20537;-64
2022/11/29 09:02:46;;;;;;;27.70;8.98;;;7.50;99.90;;;;;;5113292;28;20042;-64
2022/11/29 09:05:12;;;;;;;25.08;9.13;;;7.50;99.90;;;;;;5090711;28;20048;-63
2022/11/29 09:07:37;;;;;;;22.75;8.15;;;7.60;99.90;;;;;;5103721;28;20510;-64
2022/11/29 09:10:07;;;;;;;22.20;7.57;;;7.70;99.90;;;;;;5110813;28;20236;-64
2022/11/29 09:12:34;;;;;;;20.15;7.40;;;7.70;99.90;;;;;;5110868;28;20043;-64
2022/11/29 09:15:00;;;;;;;20.20;7.65;;;7.80;99.90;;;;;;5092195;28;20036;-64
2022/11/29 09:17:26;;;;;;;18.95;8.13;;;7.90;99.90;;;;;;5111125;28;20040;-64
2022/11/29 09:19:51;;;;;;;18.58;6.93;;;7.90;99.90;;;;;;5112345;28;20051;-64
2022/11/29 09:22:17;;;;;;;22.50;9.20;;;8.00;99.90;;;;;;5109330;28;20403;-64
2022/11/29 09:24:43;;;;;;;23.02;7.93;;;8.00;99.90;;;;;;5110648;28;20051;-64
2022/11/29 09:27:09;;;;;;;20.13;7.63;;;8.10;99.90;;;;;;5108898;28;20134;-64
2022/11/29 09:29:35;;;;;;;19.52;7.38;;;8.10;99.90;;;;;;5109978;28;20047;-64
2022/11/29 09:32:00;;;;;;;25.52;7.72;;;8.10;99.90;;;;;;5111812;28;20039;-64
2022/11/29 09:34:26;;;;;;;19.40;7.15;;;8.10;99.90;;;;;;5111065;28;20028;-64
2022/11/29 09:36:52;;;;;;;23.40;7.72;;;8.20;99.90;;;;;;5110964;28;20058;-64
2022/11/29 09:39:17;;;;;;;24.40;6.78;;;8.20;99.90;;;;;;5108646;28;20115;-64
2022/11/29 09:42:17;;;;;;;20.63;8.32;;;8.30;99.90;;;;;;5107643;28;20071;-64
2022/11/29 09:45:05;;;;;;;20.30;8.80;;;8.30;99.90;;;;;;5098075;28;20119;-65
2022/11/29 09:47:36;;;;;;;24.45;8.30;;;8.40;99.90;;;;;;5110881;28;20499;-65
2022/11/29 09:50:35;;;;;;;18.05;6.78;;;8.40;99.90;;;;;;5075110;28;20138;-64
2022/11/29 09:53:31;;;;;;;21.67;7.55;;;8.50;99.90;;;;;;5090524;28;20040;-64
2022/11/29 09:56:18;;;;;;;22.15;6.68;;;8.50;99.90;;;;;;5103596;28;20040;-64
2022/11/29 09:58:49;;;;;;;21.50;7.07;;;8.60;99.90;;;;;;5104256;28;20066;-65
2022/11/29 10:01:41;;;;;;;19.42;7.28;;;8.60;99.90;;;;;;5088722;28;20493;-64
2022/11/29 10:04:20;;;;;;;19.40;7.10;;;8.70;99.90;;;;;;5097028;28;20109;-64
2022/11/29 10:06:57;;;;;;;23.60;7.32;;;8.70;99.90;;;;;;5109987;28;20108;-64
2022/11/29 10:09:31;;;;;;;16.77;7.47;;;8.80;99.90;;;;;;5112435;28;20031;-64
2022/11/29 10:12:13;;;;;;;24.15;8.38;;;8.80;99.90;;;;;;5104499;28;20050;-64
2022/11/29 10:15:01;;;;;;;17.20;6.85;;;8.90;99.90;;;;;;5111585;28;20039;-64
2022/11/29 10:17:38;;;;;;;18.83;7.53;;;9.00;99.90;;;;;;5097068;28;20039;-64
2022/11/29 10:20:11;;;;;;;22.65;7.50;;;9.00;99.90;;;;;;5111803;28;20050;-63
2022/11/29 10:23:31;;;;;;;24.50;8.20;;;9.10;99.90;;;;;;5112135;28;20470;-63
2022/11/29 10:25:57;;;;;;;16.38;6.63;;;9.10;99.90;;;;;;5026032;28;20053;-63
2022/11/29 10:28:26;;;;;;;16.23;7.47;;;9.10;99.90;;;;;;5070327;28;20052;-63
2022/11/29 10:30:58;;;;;;;19.90;8.10;;;9.20;99.90;;;;;;5111096;28;20039;-66
2022/11/29 10:33:36;;;;;;;420.23;287.73;;;9.20;99.90;;;;;;5110205;28;20104;-64
2022/11/29 10:36:06;;;;;;;56.40;29.95;;;9.20;99.90;;;;;;5110876;28;20379;-64
2022/11/29 10:38:32;;;;;;;28.65;15.30;;;9.20;99.90;;;;;;5111436;28;20356;-64
2022/11/29 10:41:06;;;;;;;49.42;40.00;;;9.20;99.90;;;;;;5111756;28;20133;-64
2022/11/29 10:43:32;;;;;;;23.07;14.67;;;9.20;99.90;;;;;;5111747;28;20036;-64
2022/11/29 10:45:57;;;;;;;23.25;15.30;;;9.20;99.90;;;;;;5110380;28;20513;-64
2022/11/29 10:48:32;;;;;;;33.00;19.17;;;9.30;99.90;;;;;;5112528;28;20044;-64
2022/11/29 10:50:59;;;;;;;22.10;10.50;;;9.40;99.90;;;;;;5112863;28;20549;-64
2022/11/29 10:53:35;;;;;;;21.08;9.85;;;9.40;99.90;;;;;;5110213;28;20488;-64
2022/11/29 10:56:21;;;;;;;21.88;9.32;;;9.50;99.90;;;;;;5111697;28;20432;-64
2022/11/29 10:59:02;;;;;;;18.63;10.98;;;9.50;99.90;;;;;;5111603;28;20047;-64
2022/11/29 11:01:30;;;;;;;21.95;10.75;;;9.60;99.90;;;;;;5093890;28;20075;-64
2022/11/29 11:03:57;;;;;;;17.92;10.73;;;9.50;99.90;;;;;;5094412;28;20043;-64
2022/11/29 11:06:26;;;;;;;18.35;10.35;;;9.60;99.90;;;;;;5110117;28;20446;-64
2022/11/29 11:09:16;;;;;;;18.13;11.35;;;9.60;99.90;;;;;;5111318;28;20040;-64
2022/11/29 11:11:53;;;;;;;18.00;11.40;;;9.60;99.90;;;;;;5111322;28;20031;-64
2022/11/29 11:14:25;;;;;;;18.77;12.30;;;9.60;99.90;;;;;;5109866;28;20036;-64
2022/11/29 11:16:52;;;;;;;16.77;11.02;;;9.70;99.90;;;;;;5111023;28;20036;-63
2022/11/29 11:19:32;;;;;;;19.17;10.23;;;9.70;99.90;;;;;;5110800;28;20399;-63
2022/11/29 11:22:00;;;;;;;16.25;10.38;;;9.70;99.90;;;;;;5111571;28;20092;-63
2022/11/29 11:24:31;;;;;;;14.38;10.00;;;9.70;99.90;;;;;;5110080;28;20043;-63
2022/11/29 11:26:58;;;;;;;19.15;11.82;;;9.60;99.90;;;;;;5110927;28;20066;-63
2022/11/29 11:29:42;;;;;;;17.88;10.85;;;9.60;99.90;;;;;;5109062;28;20082;-63
2022/11/29 11:32:19;;;;;;;16.17;9.77;;;9.60;99.90;;;;;;5109343;28;20036;-63
2022/11/29 11:34:51;;;;;;;16.17;9.23;;;9.60;99.90;;;;;;5110714;28;20126;-63
2022/11/29 11:37:21;;;;;;;17.80;10.18;;;9.70;99.90;;;;;;5110734;28;20100;-63
2022/11/29 11:39:49;;;;;;;15.85;8.95;;;9.70;99.90;;;;;;5110737;28;20088;-63
2022/11/29 11:42:37;;;;;;;13.45;8.40;;;9.70;99.90;;;;;;5092825;28;20089;-63
2022/11/29 11:45:12;;;;;;;12.73;7.68;;;9.80;99.90;;;;;;5112062;28;20032;-63
2022/11/29 11:47:47;;;;;;;10.15;7.68;;;9.80;99.90;;;;;;5111149;28;20035;-63
2022/11/29 11:50:24;;;;;;;16.10;7.72;;;9.80;99.90;;;;;;5110080;28;20043;-62
2022/11/29 11:52:53;;;;;;;12.13;7.47;;;9.80;99.90;;;;;;5111244;28;20089;-62
2022/11/29 11:55:25;;;;;;;11.65;7.63;;;9.80;99.90;;;;;;5109551;28;20539;-62
2022/11/29 11:58:05;;;;;;;10.45;6.60;;;9.80;99.90;;;;;;5113071;28;20035;-64
2022/11/29 12:00:53;;;;;;;10.63;7.00;;;9.80;99.90;;;;;;5113525;28;20399;-64
2022/11/29 12:03:44;;;;;;;11.50;6.72;;;9.90;99.90;;;;;;5113308;28;20043;-64
2022/11/29 12:06:27;;;;;;;10.85;6.43;;;9.90;99.90;;;;;;5115110;28;20548;-64
2022/11/29 12:08:59;;;;;;;11.07;6.45;;;9.80;99.90;;;;;;5114665;28;20028;-65
2022/11/29 12:11:26;;;;;;;12.15;7.30;;;9.80;99.90;;;;;;5113354;28;20506;-65
2022/11/29 12:13:55;;;;;;;14.63;8.43;;;9.80;99.90;;;;;;5097577;28;20039;-65
2022/11/29 12:16:28;;;;;;;14.10;7.85;;;9.80;99.90;;;;;;5113165;28;20044;-65
2022/11/29 12:19:12;;;;;;;12.98;6.90;;;9.80;99.90;;;;;;5114509;28;20074;-65
2022/11/29 12:21:42;;;;;;;10.90;6.78;;;9.80;99.90;;;;;;5097379;28;20255;-64
2022/11/29 12:24:34;;;;;;;12.95;7.28;;;9.80;99.90;;;;;;5114092;28;20039;-65
2022/11/29 12:27:03;;;;;;;12.75;7.35;;;9.90;99.90;;;;;;5115054;28;20047;-65
2022/11/29 12:29:32;;;;;;;10.43;6.93;;;9.90;99.90;;;;;;5114049;28;20052;-64
2022/11/29 12:32:13;;;;;;;11.43;6.65;;;10.00;99.90;;;;;;5114506;28;20031;-65
2022/11/29 12:35:08;;;;;;;7.63;4.43;;;10.00;99.90;;;;;;5114303;28;20145;-65
2022/11/29 12:37:46;;;;;;;7.40;4.10;;;10.10;99.90;;;;;;5041419;28;20207;-65
2022/11/29 12:40:20;;;;;;;6.80;3.70;;;10.10;99.90;;;;;;5114658;28;20058;-65
2022/11/29 12:42:59;;;;;;;6.85;3.78;;;10.20;99.90;;;;;;5114032;28;20043;-65
2022/11/29 12:45:30;;;;;;;7.88;3.70;;;10.20;99.90;;;;;;5112621;28;20400;-65
2022/11/29 12:48:30;;;;;;;5.65;2.97;;;10.10;99.90;;;;;;5114033;28;20429;-65
2022/11/29 12:51:07;;;;;;;7.57;3.58;;;10.10;99.90;;;;;;5113793;28;20043;-65
2022/11/29 12:53:57;;;;;;;8.65;4.55;;;10.10;99.90;;;;;;5114033;28;20036;-65
2022/11/29 12:56:30;;;;;;;7.93;4.70;;;10.10;99.90;;;;;;5095961;28;20567;-65
2022/11/29 12:59:28;;;;;;;8.20;5.35;;;10.10;99.90;;;;;;5114053;28;20131;-65
2022/11/29 13:02:19;;;;;;;8.48;4.65;;;10.00;99.90;;;;;;5069270;28;20496;-65
2022/11/29 13:05:01;;;;;;;8.10;4.50;;;10.00;99.90;;;;;;5114640;28;20036;-65
2022/11/29 13:07:37;;;;;;;9.63;5.30;;;9.90;99.90;;;;;;5111757;28;20088;-65
2022/11/29 13:10:24;;;;;;;7.60;4.75;;;9.90;99.90;;;;;;5113271;28;20594;-65
2022/11/29 13:12:54;;;;;;;9.80;4.43;;;9.90;99.90;;;;;;5112341;28;20548;-65
2022/11/29 13:15:25;;;;;;;7.88;5.03;;;9.80;99.90;;;;;;5113870;28;20071;-64
2022/11/29 13:17:56;;;;;;;7.82;5.97;;;9.80;99.90;;;;;;5114349;28;20476;-65
2022/11/29 13:20:33;;;;;;;7.13;6.28;;;9.80;99.90;;;;;;5111537;28;20039;-64
2022/11/29 13:23:21;;;;;;;9.07;5.95;;;9.70;99.90;;;;;;5095979;28;20040;-65
2022/11/29 13:25:53;;;;;;;6.90;4.50;;;9.70;99.90;;;;;;5113045;28;20079;-65
2022/11/29 13:28:26;;;;;;;8.02;4.40;;;9.70;99.90;;;;;;5111512;28;20055;-65
2022/11/29 13:30:55;;;;;;;7.85;4.10;;;9.60;99.90;;;;;;5112866;28;20040;-65
2022/11/29 13:33:32;;;;;;;6.78;4.32;;;9.60;99.90;;;;;;5111800;28;20043;-65
2022/11/29 13:36:04;;;;;;;7.93;4.75;;;9.60;99.90;;;;;;5111116;28;20071;-65